This is the latest recevied weather packets stored in our database for station/object KB9PMA-1. If no packets are shown the sender has not sent any weather packets the latest 10 day(s).
| Time | Temp. | Humidity | Pressure | Rain* | Wind** | Luminosity | Snow |
|---|---|---|---|---|---|---|---|
| 1777306399 | 21.11° C | 61% | 1015.2 hPa | 0 mm | - | - | - |
| 1777305799 | 20.56° C | 59% | 1015.2 hPa | 0 mm | - | - | - |
| 1777305499 | 20.56° C | 61% | 1015 hPa | 0 mm | - | - | - |
| 1777305199 | 20.56° C | 63% | 1015 hPa | 0 mm | - | - | - |
| 1777304899 | 20.56° C | 62% | 1015.2 hPa | 0 mm | - | - | - |
| 1777304599 | 20.56° C | 62% | 1015.3 hPa | 0 mm | - | - | - |
| 1777304299 | 20.56° C | 61% | 1015.4 hPa | 0 mm | - | - | - |
| 1777303999 | 20° C | 65% | 1015.5 hPa | 0 mm | - | - | - |
| 1777303699 | 20° C | 63% | 1015.5 hPa | 0 mm | - | - | - |
| 1777303399 | 20° C | 65% | 1015.5 hPa | 0 mm | - | - | - |
| 1777302799 | 20° C | 63% | 1015.4 hPa | 0 mm | - | - | - |
| 1777301599 | 18.89° C | 67% | 1015.3 hPa | 0 mm | - | - | - |
| 1777301299 | 18.89° C | 66% | 1015.3 hPa | 0 mm | - | - | - |
| 1777300699 | 18.89° C | 69% | 1015.3 hPa | 0 mm | - | - | - |
| 1777300399 | 18.89° C | 67% | 1015.2 hPa | 0 mm | - | - | - |
| 1777300099 | 18.89° C | 66% | 1015 hPa | 0 mm | - | - | - |
| 1777299799 | 18.33° C | 68% | 1015.1 hPa | 0 mm | - | - | - |
| 1777299499 | 18.33° C | 71% | 1015.2 hPa | 0 mm | - | - | - |
| 1777299199 | 17.78° C | 70% | 1015.3 hPa | 0 mm | - | - | - |
| 1777296799 | 15.56° C | 77% | 1016 hPa | 0 mm | - | - | - |
| 1777296499 | 15.56° C | 76% | 1016.1 hPa | 0 mm | - | - | - |
| 1777295899 | 15° C | 78% | 1016.2 hPa | 0 mm | - | - | - |
| 1777295599 | 15° C | 81% | 1016.6 hPa | 0 mm | - | - | - |
| 1777295299 | 14.44° C | 80% | 1016.7 hPa | 0 mm | - | - | - |
| 1777294699 | 13.89° C | 81% | 1016.5 hPa | 0 mm | - | - | - |
* Rain latest hour (hover to see other rain measurements)
** Current wind speed in m/s (hover to see current wind gust speed)